Flight Track Log - Related Links

Times and Time Zones

All times are in EDT time to prevent confusion due to time zone crossing. See the SKW5641 flight status page for this flight to view local times or setup timezone preferences in your user account.

Time Position Orientation Groundspeed Altitude Reporting Facility
EDT Latitude Longitude Course Direction KTS MPH feet Rate Location/Type
Mon 05:27:08 PM 39.8500 -104.7667 293° West 189 217 6,800  Level Denver TRACON
Mon 05:28:02 PM 39.8667 -104.8167 293° West 217 250 8,900 1,800 Climbing Denver TRACON
Mon 05:29:08 PM 39.9000 -104.9000 298° West 245 282 10,400 1,333 Climbing Denver TRACON
Mon 05:30:08 PM 39.9500 -104.9833 308° West 279 321 11,700 1,579 Climbing Denver TRACON
Mon 05:31:02 PM 39.9500 -105.0833 270° West 284 327 13,400 1,950 Climbing Denver TRACON
Mon 05:32:08 PM 39.9667 -105.1833 282° West 287 330 15,600 2,047 Climbing Denver TRACON
Mon 05:33:11 PM 39.9800 -105.2953 279° West 292 336 17,800 2,016 Climbing Denver Center
Mon 05:34:13 PM 39.9819 -105.4119 271° West 299 344 19,800 1,645 Climbing Denver Center
Mon 05:35:15 PM 39.9794 -105.5242 268° West 308 354 21,200 1,122 Climbing Denver Center
Mon 05:36:16 PM 39.9772 -105.6419 269° West 330 380 22,100 976 Climbing Denver Center
Mon 05:37:18 PM 39.9728 -105.7739 268° West 341 392 23,200 968 Climbing Denver Center
Mon 05:38:20 PM 39.9719 -105.8900 270° West 335 386 24,100 726 Climbing Denver Center
Mon 05:39:22 PM 39.9800 -106.0206 275° West 356 410 24,700 581 Climbing Denver Center
Mon 05:40:24 PM 39.9878 -106.1569 274° West 372 428 25,300 629 Climbing Denver Center
Mon 05:41:26 PM 39.9978 -106.3211 275° West 386 444 26,000 629 Climbing Denver Center
Mon 05:42:28 PM 40.0047 -106.4642 274° West 394 453 26,600 581 Climbing Denver Center
Mon 05:43:30 PM 40.0122 -106.5978 274° West 394 453 27,200 537 Climbing Denver Center
Mon 05:44:31 PM 40.0186 -106.7119 274° West 396 456 27,700 581 Climbing Denver Center
Mon 05:45:34 PM 40.0281 -106.8936 274° West 394 453 28,400 672 Climbing Denver Center
Mon 05:46:36 PM 40.0367 -107.0542 274° West 397 457 29,100 634 Climbing Denver Center
Mon 05:47:37 PM 40.0433 -107.1911 274° West 397 457 29,700 634 Climbing Denver Center
Mon 05:48:39 PM 40.0511 -107.3500 274° West 394 453 30,400 581 Climbing Denver Center
Mon 05:49:41 PM 40.0572 -107.4861 273° West 393 452 30,900 532 Climbing Denver Center
Mon 05:50:43 PM 40.0650 -107.6439 274° West 392 451 31,500 485 Climbing Denver Center
Mon 05:51:57 PM 40.0700 -107.7789 273° West 392 451 32,000 221 Climbing Denver Center
Mon 05:52:59 PM 40.0783 -107.9611 273° West 396 456 32,000  Level Denver Center
Mon 05:54:01 PM 40.0844 -108.1006 273° West 403 464 32,000  Level Denver Center
Mon 05:55:03 PM 40.0911 -108.2667 273° West 412 474 32,000  Level Denver Center
Mon 05:56:05 PM 40.0969 -108.4097 273° West 416 479 32,000  Level Denver Center
Mon 05:57:07 PM 40.1006 -108.5297 272° West 418 481 32,000  Level Denver Center
Mon 05:58:09 PM 40.1078 -108.7219 273° West 418 481 32,000  Level Denver Center
Mon 05:59:11 PM 40.1122 -108.8433 273° West 420 483 32,000  Level Denver Center
Mon 06:00:06 PM 40.1181 -109.0361 272° West 419 482 32,000  Level Salt Lake Center
Mon 06:01:08 PM 40.1236 -109.1792 273° West 416 479 32,000 -145 Level Salt Lake Center
Mon 06:02:10 PM 40.1275 -109.3231 272° West 416 479 31,700 -683 Descending Salt Lake Center
Mon 06:03:11 PM 40.1322 -109.4981 272° West 432 497 30,600 -829 Descending Salt Lake Center
Mon 06:04:13 PM 40.1369 -109.6503 272° West 439 505 30,000 -293 Descending Salt Lake Center
Mon 06:05:14 PM 40.1422 -109.8219 272° West 425 489 30,000  Level Salt Lake Center
Mon 06:06:16 PM 40.1456 -109.9708 272° West 427 491 30,000  Level Salt Lake Center
Mon 06:07:17 PM 40.1494 -110.1450 272° West 429 494 30,000  Level Salt Lake Center
Mon 06:08:19 PM 40.1492 -110.2925 270° West 426 490 30,000  Level Salt Lake Center
Mon 06:09:21 PM 40.1472 -110.4378 269° West 422 486 30,000 -390 Level Salt Lake Center
Mon 06:10:22 PM 40.1464 -110.5919 270° West 390 449 29,200 -1,220 Descending Salt Lake Center
Mon 06:11:24 PM 40.1450 -110.7133 269° West 362 417 27,500 -1,756 Descending Salt Lake Center
Mon 06:12:25 PM 40.1433 -110.8475 269° West 337 388 25,600 -1,707 Descending Salt Lake Center
Mon 06:13:27 PM 40.1414 -110.9497 269° West 320 368 24,000 -1,610 Descending Salt Lake Center
Mon 06:14:28 PM 40.1411 -111.0611 270° West 310 357 22,300 -1,805 Descending Salt Lake Center
Mon 06:15:30 PM 40.0981 -111.1717 243° Southwest 319 367 20,300 -1,756 Descending Salt Lake Center
Mon 06:16:31 PM 40.0344 -111.2261 213° Southwest 322 371 18,700 -1,756 Descending Salt Lake Center
Mon 06:17:33 PM 40.0564 -111.3461 283° West 323 372 16,700 -1,306 Descending Salt Lake Center
Mon 06:18:35 PM 40.1000 -111.4633 296° West 349 402 16,000 -396 Descending Salt Lake Center
Mon 06:19:19 PM 40.1319 -111.5667 292° West 365 420 16,000  Level Salt Lake Center
Mon 06:19:36 PM 40.1458 -111.5847 315° West 369 425 16,000  Level Salt Lake Center
Mon 06:20:38 PM 40.2019 -111.7225 298° West 379 436 16,000 -344 Level Salt Lake Center
Mon 06:21:38 PM 40.2756 -111.8211 314° West 381 438 15,300 -1,438 Descending Salt Lake Center
Mon 06:22:39 PM 40.3636 -111.8842 331° Northwest 357 411 13,100 -2,182 Descending Salt Lake Center
Mon 06:23:39 PM 40.4497 -111.9281 339° North 315 362 10,900 -1,983 Descending Salt Lake Center
Mon 06:24:40 PM 40.5339 -111.9392 354° North 311 358 9,100 -1,500 Descending Salt Lake Center
Mon 06:25:47 PM 40.6197 -111.9494 355° North 286 329 7,700 -992 Descending Salt Lake Center
Mon 06:26:47 PM 40.6883 -111.9536 357° North 242 278 7,000 -1,279 Descending Salt Lake Center
Mon 06:27:49 PM 40.7322 -111.9619 352° North 159 183 5,100 -1,317 Descending Salt Lake Center
Mon 06:28:50 PM 40.7739 -111.9622 360° North 150 173 4,300 -787 Descending Salt Lake Center
Mon 06:30:00 PM 40.7833 -111.9667 North  Level FlightAware Approximate

Login

Don't have an account? Register now (free) for customized features, flight alerts, and more!